This is the latest recevied weather packets stored in our database for station/object OE-11208. If no packets are shown the sender has not sent any weather packets the latest 10 day(s).
| Time | Temp. | Humidity | Pressure | Rain* | Wind** | Luminosity | Snow |
|---|---|---|---|---|---|---|---|
| 1787943321 | 20° C | 78% | 1012.3 hPa | 0 mm | - | 0 W/m² | - |
| 1787942495 | 20° C | 77% | 1012.2 hPa | 0 mm | - | 0 W/m² | - |
| 1787941515 | 20° C | 78% | 1012 hPa | 0 mm | - | 0 W/m² | - |
| 1787940695 | 21.67° C | 70% | 1011.4 hPa | 0 mm | - | 0 W/m² | - |
| 1787940322 | 21.67° C | 68% | 1011 hPa | 0 mm | - | 7 W/m² | - |
| 1787939721 | 21.67° C | 69% | 1010.9 hPa | 0 mm | - | 7 W/m² | - |
| 1787938895 | 22.22° C | 67% | 1011 hPa | 0 mm | - | 13 W/m² | - |
| 1787938522 | 22.78° C | 66% | 1011.4 hPa | 0 mm | - | 13 W/m² | - |
| 1787937922 | 22.78° C | 68% | 1011.3 hPa | 0 mm | - | 13 W/m² | - |
| 1787937095 | 22.78° C | 64% | 1011.1 hPa | 0 mm | - | 20 W/m² | - |
| 1787936721 | 23.33° C | 62% | 1010.8 hPa | 0 mm | - | 40 W/m² | - |
| 1787936121 | 23.33° C | 64% | 1010.4 hPa | 0 mm | - | 61 W/m² | - |
| 1787935295 | 23.89° C | 62% | 1010.6 hPa | 0 mm | - | 67 W/m² | - |
| 1787934922 | 24.44° C | 59% | 1010.4 hPa | 0 mm | - | 108 W/m² | - |
| 1787934322 | 24.44° C | 59% | 1010 hPa | 0 mm | - | 134 W/m² | - |
| 1787933495 | 24.44° C | 58% | 1009.6 hPa | 0 mm | - | 128 W/m² | - |
| 1787933122 | 24.44° C | 59% | 1009.3 hPa | 0 mm | - | 134 W/m² | - |
| 1787932522 | 24.44° C | 61% | 1009.5 hPa | 0 mm | - | 121 W/m² | - |
| 1787931695 | 25° C | 62% | 1009.1 hPa | 0 mm | - | 94 W/m² | - |
| 1787931322 | 25.56° C | 60% | 1008.5 hPa | 0 mm | - | 101 W/m² | - |
| 1787930722 | 26.11° C | 57% | 1007.7 hPa | 0 mm | - | 128 W/m² | - |
| 1787929895 | 27.78° C | 51% | 1006.9 hPa | 0 mm | - | 128 W/m² | - |
| 1787929521 | 29.44° C | 44% | 1005.9 hPa | 0 mm | - | 148 W/m² | - |
| 1787928921 | 30° C | 46% | 1005.7 hPa | 0 mm | - | 215 W/m² | - |
| 1787928095 | 30.56° C | 49% | 1005.4 hPa | 0 mm | - | 229 W/m² | - |
* Rain latest hour (hover to see other rain measurements)
** Current wind speed in m/s (hover to see current wind gust speed)